Time;durP1;ratioP1;P1;durP2;ratioP2;P2;SDS_P1;SDS_P2;PMS_P1;PMS_P2;Temp;Humidity;BMP_temperature;BMP_pressure;BME280_temperature;BME280_humidity;BME280_pressure;Samples;Min_cycle;Max_cycle;Signal;HPM_P1;HPM_P2
2022/06/03 00:01:56;;;;;;;;;;;;;;;15.47;100.00;99769.31;1689079;85;20086;-72
2022/06/03 00:04:55;;;;;;;;;;;;;;;15.45;100.00;99768.05;1668837;84;21916;-72
2022/06/03 00:07:51;;;;;;;;;;;;;;;15.42;100.00;99775.65;1689355;85;20126;-74
2022/06/03 00:10:24;;;;;;;;;;;;;;;15.41;100.00;99780.95;1689008;84;20450;-73
2022/06/03 00:13:15;;;;;;;;;;;;;;;15.38;100.00;99785.20;1689318;85;20592;-74
2022/06/03 00:16:02;;;;;;;;;;;;;;;15.34;100.00;99782.89;1689001;83;20098;-72
2022/06/03 00:18:36;;;;;;;;;;;;;;;15.31;100.00;99786.34;1689124;84;21163;-72
2022/06/03 00:21:07;;;;;;;;;;;;;;;15.27;100.00;99795.08;1688960;85;20170;-71
2022/06/03 00:23:57;;;;;;;;;;;;;;;15.22;100.00;99804.16;1688903;85;20122;-71
2022/06/03 00:26:44;;;;;;;;;;;;;;;15.19;100.00;99804.27;1689142;84;20172;-71
2022/06/03 00:29:16;;;;;;;;;;;;;;;15.17;100.00;99813.48;1689134;84;20129;-71
2022/06/03 00:32:03;;;;;;;;;;;;;;;15.12;100.00;99813.11;1685446;84;21158;-71
2022/06/03 00:34:51;;;;;;;;;;;;;;;15.13;100.00;99815.30;1689336;85;20118;-71
2022/06/03 00:37:31;;;;;;;;;;;;;;;15.15;100.00;99811.05;1695728;83;20097;-71
2022/06/03 00:40:34;;;;;;;;;;;;;;;15.17;100.00;99816.24;1722070;83;20097;-72
2022/06/03 00:43:19;;;;;;;;;;;;;;;15.15;100.00;99812.44;1722135;83;20085;-72
2022/06/03 00:45:59;;;;;;;;;;;;;;;15.08;100.00;99821.05;1695733;83;21579;-72
2022/06/03 00:48:50;;;;;;;;;;;;;;;15.01;100.00;99823.57;1722029;83;20097;-71
2022/06/03 00:51:38;;;;;;;;;;;;;;;14.98;100.00;99829.78;1721515;83;20125;-71
2022/06/03 00:54:17;;;;;;;;;;;;;;;14.94;100.00;99833.79;1722083;83;20109;-71
2022/06/03 00:57:06;;;;;;;;;;;;;;;14.92;100.00;99837.47;1722374;83;20120;-70
2022/06/03 00:59:55;;;;;;;;;;;;;;;14.90;100.00;99834.23;1722087;83;21672;-72
2022/06/03 01:02:31;;;;;;;;;;;;;;;14.91;100.00;99839.19;1722070;83;20109;-73
2022/06/03 01:05:16;;;;;;;;;;;;;;;14.92;100.00;99845.75;1722123;83;20435;-72
2022/06/03 01:07:55;;;;;;;;;;;;;;;14.88;100.00;99841.23;1722328;83;20157;-73
2022/06/03 01:10:26;;;;;;;;;;;;;;;14.82;100.00;99841.44;1721479;83;20132;-73
2022/06/03 01:13:12;;;;;;;;;;;;;;;14.78;100.00;99846.02;1712239;83;21117;-73
2022/06/03 01:15:48;;;;;;;;;;;;;;;14.77;100.00;99853.27;1730513;82;20110;-73
2022/06/03 01:18:39;;;;;;;;;;;;;;;14.77;100.00;99856.03;1751148;82;20150;-73
2022/06/03 01:21:40;;;;;;;;;;;;;;;14.78;100.00;99852.12;1750444;82;21029;-73
2022/06/03 01:24:33;;;;;;;;;;;;;;;14.76;100.00;99853.84;1751199;82;20458;-74
2022/06/03 01:27:12;;;;;;;;;;;;;;;14.74;100.00;99854.75;1723310;82;21864;-74
2022/06/03 01:29:59;;;;;;;;;;;;;;;14.71;100.00;99854.03;1751244;81;20158;-74
2022/06/03 01:32:41;;;;;;;;;;;;;;;14.68;100.00;99857.47;1751164;82;20095;-75
2022/06/03 01:35:14;;;;;;;;;;;;;;;14.64;100.00;99850.99;1724016;82;20086;-73
2022/06/03 01:38:01;;;;;;;;;;;;;;;14.58;100.00;99850.95;1750991;82;20087;-74
2022/06/03 01:40:47;;;;;;;;;;;;;;;14.51;100.00;99846.53;1745319;82;21114;-73
2022/06/03 01:43:24;;;;;;;;;;;;;;;14.45;100.00;99850.63;1699337;84;20123;-74
2022/06/03 01:46:17;;;;;;;;;;;;;;;14.39;100.00;99845.86;1699284;84;32428;-76
2022/06/03 01:48:50;;;;;;;;;;;;;;;14.34;100.00;99839.15;1699111;84;20613;-76
2022/06/03 01:51:22;;;;;;;;;;;;;;;14.30;100.00;99843.72;1699400;84;20171;-76
2022/06/03 01:53:55;;;;;;;;;;;;;;;14.25;100.00;99843.91;1699765;84;21128;-75
2022/06/03 01:56:43;;;;;;;;;;;;;;;14.21;100.00;99848.47;1699927;84;20091;-73
2022/06/03 01:59:23;;;;;;;;;;;;;;;14.18;100.00;99842.23;1661891;86;20090;-76
2022/06/03 02:02:05;;;;;;;;;;;;;;;14.15;100.00;99845.66;1692265;84;20726;-77
2022/06/03 02:05:03;;;;;;;;;;;;;;;14.14;100.00;99850.38;1699074;84;20099;-77
2022/06/03 02:07:40;;;;;;;;;;;;;;;14.11;100.00;99852.98;1699749;84;22007;-76
2022/06/03 02:10:32;;;;;;;;;;;;;;;14.11;100.00;99854.37;1699271;84;20087;-77
2022/06/03 02:13:23;;;;;;;;;;;;;;;14.08;100.00;99860.55;1700122;84;20130;-75
2022/06/03 02:15:57;;;;;;;;;;;;;;;14.07;100.00;99856.98;1692379;82;20089;-73
2022/06/03 02:18:41;;;;;;;;;;;;;;;14.08;100.00;99859.17;1685241;84;20093;-72
2022/06/03 02:21:29;;;;;;;;;;;;;;;14.05;100.00;99862.02;1693719;82;22138;-73
2022/06/03 02:24:27;;;;;;;;;;;;;;;14.02;100.00;99863.25;1686061;84;20085;-71
2022/06/03 02:27:18;;;;;;;;;;;;;;;14.01;100.00;99867.16;1673701;84;20100;-70
2022/06/03 02:30:25;;;;;;;;;;;;;;;13.97;100.00;99869.77;1691681;83;20745;-76
2022/06/03 02:33:13;;;;;;;;;;;;;;;13.95;100.00;99878.13;1701530;84;20101;-73
2022/06/03 02:36:01;;;;;;;;;;;;;;;13.94;100.00;99893.87;1665585;84;21605;-72
2022/06/03 02:38:48;;;;;;;;;;;;;;;13.93;100.00;99896.97;1647621;85;20976;-72
2022/06/03 02:41:21;;;;;;;;;;;;;;;13.92;100.00;99900.88;1661809;83;20437;-73
2022/06/03 02:44:20;;;;;;;;;;;;;;;13.92;100.00;99900.30;1664512;86;20090;-73
2022/06/03 02:46:53;;;;;;;;;;;;;;;13.95;100.00;99900.21;1665169;86;20090;-72
2022/06/03 02:49:39;;;;;;;;;;;;;;;13.96;100.00;99907.36;1667722;83;21176;-72
2022/06/03 02:52:21;;;;;;;;;;;;;;;13.94;100.00;99910.44;1682717;85;20224;-72
2022/06/03 02:55:14;;;;;;;;;;;;;;;13.95;100.00;99911.25;1665150;83;20121;-72
2022/06/03 02:57:43;;;;;;;;;;;;;;;13.94;100.00;99924.81;1676790;83;20094;-71
2022/06/03 03:00:18;;;;;;;;;;;;;;;13.91;100.00;99918.56;1664889;86;20173;-72
2022/06/03 03:03:08;;;;;;;;;;;;;;;13.85;100.00;99922.10;1662837;86;21110;-73
2022/06/03 03:05:45;;;;;;;;;;;;;;;13.78;100.00;99912.13;1664797;86;20094;-72
2022/06/03 03:08:41;;;;;;;;;;;;;;;13.74;100.00;99912.55;1673589;83;20442;-72
2022/06/03 03:11:33;;;;;;;;;;;;;;;13.68;100.00;99911.91;1692883;84;20119;-72
2022/06/03 03:14:04;;;;;;;;;;;;;;;13.64;100.00;99921.98;1692968;85;20155;-72
2022/06/03 03:16:52;;;;;;;;;;;;;;;13.60;100.00;99929.28;1692670;84;21219;-72
2022/06/03 03:19:39;;;;;;;;;;;;;;;13.57;100.00;99929.94;1692898;84;20514;-72
2022/06/03 03:22:15;;;;;;;;;;;;;;;13.57;100.00;99933.27;1692847;84;20146;-73
2022/06/03 03:25:05;;;;;;;;;;;;;;;13.59;100.00;99940.08;1692730;85;20451;-72
2022/06/03 03:27:44;;;;;;;;;;;;;;;13.63;100.00;99939.66;1692858;85;20115;-72
2022/06/03 03:30:26;;;;;;;;;;;;;;;13.68;100.00;99948.34;1692902;84;21560;-72
2022/06/03 03:33:11;;;;;;;;;;;;;;;13.72;100.00;99941.84;1692730;84;20119;-73
2022/06/03 03:35:57;;;;;;;;;;;;;;;13.80;100.00;99948.48;1692831;84;20099;-72
2022/06/03 03:38:58;;;;;;;;;;;;;;;13.83;100.00;99949.22;1699584;83;20117;-72
2022/06/03 03:41:28;;;;;;;;;;;;;;;13.84;100.00;99951.64;1716744;83;20090;-71
2022/06/03 03:44:11;;;;;;;;;;;;;;;13.89;100.00;99965.24;1716724;83;21725;-71
2022/06/03 03:46:54;;;;;;;;;;;;;;;13.92;100.00;99964.34;1716963;83;20078;-70
2022/06/03 03:49:30;;;;;;;;;;;;;;;13.94;100.00;99974.49;1714710;82;20101;-71
2022/06/03 03:52:08;;;;;;;;;;;;;;;13.94;100.00;99974.49;1716878;83;20130;-71
2022/06/03 03:54:44;;;;;;;;;;;;;;;13.94;100.00;99975.88;1716761;83;20102;-70
2022/06/03 03:57:17;;;;;;;;;;;;;;;13.97;100.00;99978.78;1717055;83;21056;-71
2022/06/03 04:00:07;;;;;;;;;;;;;;;13.98;100.00;99980.98;1716589;83;20093;-71
2022/06/03 04:03:17;;;;;;;;;;;;;;;14.03;100.00;99979.42;1716664;83;20089;-71
2022/06/03 04:05:49;;;;;;;;;;;;;;;14.08;100.00;99988.92;1716643;83;20121;-71
2022/06/03 04:08:54;;;;;;;;;;;;;;;14.15;100.00;99990.03;1717067;83;20081;-71
2022/06/03 04:11:59;;;;;;;;;;;;;;;14.27;100.00;99989.36;1716350;83;21262;-72
2022/06/03 04:14:56;;;;;;;;;;;;;;;14.41;100.00;99994.14;1716582;83;20117;-72
2022/06/03 04:17:32;;;;;;;;;;;;;;;14.52;100.00;99999.52;1715862;83;20460;-72
2022/06/03 04:20:02;;;;;;;;;;;;;;;14.56;100.00;100006.56;1717210;83;20463;-73
2022/06/03 04:22:53;;;;;;;;;;;;;;;14.56;100.00;100019.56;1716643;83;20204;-75
2022/06/03 04:25:50;;;;;;;;;;;;;;;14.49;100.00;100022.27;1716712;83;20117;-73
2022/06/03 04:28:50;;;;;;;;;;;;;;;14.42;100.00;100015.66;1716600;82;20116;-73
2022/06/03 04:31:33;;;;;;;;;;;;;;;14.28;100.00;100024.12;1716767;83;20101;-74
2022/06/03 04:34:32;;;;;;;;;;;;;;;14.28;100.00;100022.73;1717010;83;20197;-74
2022/06/03 04:37:36;;;;;;;;;;;;;;;14.26;100.00;100022.82;1716649;83;20116;-72
2022/06/03 04:40:32;;;;;;;;;;;;;;;14.26;100.00;100015.92;1716396;83;21170;-71
2022/06/03 04:43:21;;;;;;;;;;;;;;;14.34;100.00;100026.13;1716337;83;20121;-73
2022/06/03 04:46:06;;;;;;;;;;;;;;;14.45;100.00;100024.64;1709391;83;20101;-72
2022/06/03 04:48:57;;;;;;;;;;;;;;;14.54;100.00;100019.33;1716537;83;20839;-73
2022/06/03 04:51:45;;;;;;;;;;;;;;;14.66;100.00;100026.92;1710437;83;20476;-74
2022/06/03 04:54:30;;;;;;;;;;;;;;;14.77;100.00;100028.19;1712033;83;21117;-75
2022/06/03 04:57:16;;;;;;;;;;;;;;;14.85;100.00;100033.44;1713503;83;20152;-73
2022/06/03 05:00:18;;;;;;;;;;;;;;;14.93;100.00;100039.49;1716761;83;20433;-75
2022/06/03 05:03:16;;;;;;;;;;;;;;;14.98;100.00;100045.41;1716667;83;20436;-72
2022/06/03 05:06:08;;;;;;;;;;;;;;;14.95;100.00;100057.13;1716664;83;20109;-73
2022/06/03 05:09:01;;;;;;;;;;;;;;;14.96;100.00;100055.98;1716722;83;21163;-72
2022/06/03 05:12:02;;;;;;;;;;;;;;;15.05;100.00;100057.54;1716453;83;20472;-73
2022/06/03 05:14:32;;;;;;;;;;;;;;;15.18;100.00;100060.64;1716603;83;20133;-75
2022/06/03 05:17:23;;;;;;;;;;;;;;;15.23;100.00;100061.02;1681680;83;20101;-75
2022/06/03 05:20:21;;;;;;;;;;;;;;;15.27;97.80;100061.16;1716708;83;20101;-74
2022/06/03 05:22:58;;;;;;;;;;;;;;;15.26;97.61;100067.84;1664815;86;21173;-73
2022/06/03 05:25:45;;;;;;;;;;;;;;;15.25;96.47;100067.61;1716054;83;20170;-74
2022/06/03 05:28:34;;;;;;;;;;;;;;;15.27;97.46;100077.77;1702395;83;20085;-73
2022/06/03 05:31:30;;;;;;;;;;;;;;;15.32;97.69;100076.19;1691517;84;20077;-75
2022/06/03 05:34:29;;;;;;;;;;;;;;;15.39;95.82;100078.67;1701259;84;20132;-75
2022/06/03 05:37:09;;;;;;;;;;;;;;;15.39;93.52;100079.23;1701329;83;21670;-73
2022/06/03 05:40:02;;;;;;;;;;;;;;;15.36;91.42;100081.30;1702037;83;20117;-73
2022/06/03 05:42:38;;;;;;;;;;;;;;;15.33;90.84;100091.06;1702371;83;20465;-73
2022/06/03 05:45:45;;;;;;;;;;;;;;;15.35;90.53;100078.29;1702496;84;20085;-73
2022/06/03 05:48:22;;;;;;;;;;;;;;;15.41;91.92;100085.25;1702325;84;20433;-73
2022/06/03 05:51:00;;;;;;;;;;;;;;;15.48;90.34;100087.73;1702349;83;21158;-73
2022/06/03 05:53:54;;;;;;;;;;;;;;;15.59;91.75;100082.64;1702299;84;20451;-73
2022/06/03 05:56:49;;;;;;;;;;;;;;;15.72;91.13;100096.77;1690927;84;20109;-73
2022/06/03 05:59:20;;;;;;;;;;;;;;;15.78;89.87;100081.58;1701722;83;20104;-74
2022/06/03 06:02:13;;;;;;;;;;;;;;;15.89;90.41;100085.33;1690191;84;20436;-74
2022/06/03 06:04:51;;;;;;;;;;;;;;;15.98;88.51;100087.45;1698972;84;21154;-74
2022/06/03 06:07:42;;;;;;;;;;;;;;;16.03;83.08;100096.94;1700756;84;20106;-74
2022/06/03 06:10:32;;;;;;;;;;;;;;;16.02;85.03;100094.75;1698003;84;20105;-74
2022/06/03 06:13:11;;;;;;;;;;;;;;;16.06;82.50;100092.11;1701697;83;20341;-77
2022/06/03 06:16:03;;;;;;;;;;;;;;;16.06;83.39;100104.00;1686105;84;20170;-76
2022/06/03 06:18:48;;;;;;;;;;;;;;;16.15;82.45;100098.39;1697131;84;21175;-75
2022/06/03 06:21:34;;;;;;;;;;;;;;;16.25;81.81;100099.33;1701921;84;20126;-78
2022/06/03 06:24:17;;;;;;;;;;;;;;;16.32;82.55;100098.20;1702029;84;20150;-77
2022/06/03 06:27:21;;;;;;;;;;;;;;;16.44;81.14;100098.24;1681373;84;20202;-76
2022/06/03 06:30:06;;;;;;;;;;;;;;;16.51;80.14;100091.57;1702093;84;20150;-76
2022/06/03 06:32:56;;;;;;;;;;;;;;;16.62;79.29;100093.91;1701993;84;21221;-76
2022/06/03 06:35:56;;;;;;;;;;;;;;;16.75;80.30;100092.81;1702206;84;20154;-76
2022/06/03 06:38:42;;;;;;;;;;;;;;;16.90;80.62;100096.28;1694380;84;20125;-74
2022/06/03 06:41:45;;;;;;;;;;;;;;;16.99;78.75;100097.56;1652784;86;20132;-74
2022/06/03 06:44:24;;;;;;;;;;;;;;;17.06;75.15;100091.67;1671204;86;20120;-73
2022/06/03 06:47:13;;;;;;;;;;;;;;;17.10;78.46;100087.05;1643117;85;21290;-73
2022/06/03 06:50:02;;;;;;;;;;;;;;;17.21;74.68;100097.70;1698220;83;20161;-74
2022/06/03 06:52:37;;;;;;;;;;;;;;;17.29;73.45;100102.33;1681272;85;20152;-74
2022/06/03 06:55:26;;;;;;;;;;;;;;;17.38;72.84;100096.05;1701947;84;20151;-75
2022/06/03 07:20:50;;;;;;;;;;;;;;;18.15;67.29;100102.38;1701667;84;20127;-74
2022/06/03 07:23:34;;;;;;;;;;;;;;;18.17;65.91;100100.64;1701328;84;20167;-74
2022/06/03 07:26:04;;;;;;;;;;;;;;;18.20;64.61;100098.55;1700248;84;20103;-74
2022/06/03 07:28:59;;;;;;;;;;;;;;;18.21;66.43;100102.36;1699626;84;20119;-74
2022/06/03 07:31:37;;;;;;;;;;;;;;;18.26;68.55;100098.52;1675218;84;20171;-73
2022/06/03 07:34:14;;;;;;;;;;;;;;;18.40;68.01;100102.51;1702185;84;20135;-74
2022/06/03 07:36:48;;;;;;;;;;;;;;;18.58;68.62;100104.36;1702002;84;20494;-74
2022/06/03 07:39:26;;;;;;;;;;;;;;;18.76;65.34;100107.08;1676152;84;20131;-75
2022/06/03 07:42:14;;;;;;;;;;;;;;;18.90;65.89;100109.42;1681703;84;20475;-73
2022/06/03 07:44:48;;;;;;;;;;;;;;;19.02;66.82;100105.75;1681738;84;20127;-73
2022/06/03 07:47:19;;;;;;;;;;;;;;;19.22;65.87;100098.27;1701904;84;20128;-72
2022/06/03 07:49:53;;;;;;;;;;;;;;;19.31;61.54;100107.24;1701564;84;20144;-73
2022/06/03 07:52:32;;;;;;;;;;;;;;;19.23;61.66;100111.02;1701383;84;20115;-75
2022/06/03 07:55:07;;;;;;;;;;;;;;;19.26;63.62;100113.09;1683475;84;20157;-76
2022/06/03 07:57:35;;;;;;;;;;;;;;;19.36;62.63;100111.95;1702038;84;20969;-76
2022/06/03 08:00:05;;;;;;;;;;;;;;;19.38;60.06;100112.98;1701858;84;20131;-73
2022/06/03 08:05:17;;;;;;;;;;;;;;;19.44;61.52;100117.11;1678290;84;20111;-73
2022/06/03 08:11:04;;;;;;;;;;;;;;;19.57;58.74;100115.87;1702236;84;20587;-72
2022/06/03 08:13:45;;;;;;;;;;;;;;;19.51;59.82;100109.52;1701271;84;20484;-72
2022/06/03 08:16:33;;;;;;;;;;;;;;;19.69;63.13;100114.91;1681968;84;20414;-74
2022/06/03 08:19:17;;;;;;;;;;;;;;;20.14;63.19;100121.30;1702459;84;20174;-77
2022/06/03 08:21:47;;;;;;;;;;;;;;;20.46;55.50;100119.16;1701802;84;20151;-74
2022/06/03 08:24:22;;;;;;;;;;;;;;;20.56;53.72;100126.94;1700873;84;21171;-74
2022/06/03 08:26:53;;;;;;;;;;;;;;;20.74;57.84;100127.28;1699542;84;20131;-69
2022/06/03 08:29:29;;;;;;;;;;;;;;;21.02;55.36;100131.96;1685425;84;20093;-77
2022/06/03 08:31:57;;;;;;;;;;;;;;;21.34;57.16;100125.56;1673944;85;20627;-76
2022/06/03 08:34:28;;;;;;;;;;;;;;;21.74;55.77;100126.95;1641955;85;20168;-76
2022/06/03 08:36:56;;;;;;;;;;;;;;;22.04;54.81;100135.37;1673704;85;20105;-82
2022/06/03 08:39:25;;;;;;;;;;;;;;;22.23;53.47;100128.23;1671354;84;20575;-81
2022/06/03 08:42:06;;;;;;;;;;;;;;;22.35;52.38;100126.59;1661944;86;20476;-73
2022/06/03 08:44:36;;;;;;;;;;;;;;;22.60;53.93;100133.05;1662540;85;20129;-77
2022/06/03 08:47:12;;;;;;;;;;;;;;;22.88;47.68;100119.40;1662053;86;20118;-71
2022/06/03 08:49:46;;;;;;;;;;;;;;;22.87;48.01;100137.38;1637176;86;20160;-73
2022/06/03 08:52:21;;;;;;;;;;;;;;;23.00;49.06;100135.11;1663328;86;20499;-71
2022/06/03 08:54:51;;;;;;;;;;;;;;;23.11;49.26;100134.59;1662826;85;20184;-73
2022/06/03 08:57:37;;;;;;;;;;;;;;;23.32;45.07;100136.78;1657881;86;20487;-70
2022/06/03 09:00:10;;;;;;;;;;;;;;;23.39;45.06;100134.03;1662691;86;20153;-72
2022/06/03 09:02:49;;;;;;;;;;;;;;;23.41;45.00;100126.64;1645335;86;21125;-76
2022/06/03 09:05:33;;;;;;;;;;;;;;;23.54;45.18;100127.38;1644212;87;20099;-75
2022/06/03 09:08:23;;;;;;;;;;;;;;;23.51;47.84;100122.53;1644169;86;20178;-76
2022/06/03 09:11:06;;;;;;;;;;;;;;;23.51;44.46;100120.32;1663039;86;20193;-75
2022/06/03 09:13:41;;;;;;;;;;;;;;;23.43;46.56;100136.87;1663092;86;20129;-76
2022/06/03 09:16:09;;;;;;;;;;;;;;;23.48;48.31;100129.50;1663144;86;21259;-76
2022/06/03 09:18:39;;;;;;;;;;;;;;;23.69;46.14;100136.67;1692140;84;20087;-77
2022/06/03 09:21:13;;;;;;;;;;;;;;;23.62;44.62;100133.84;1692255;85;20200;-81
2022/06/03 09:23:43;;;;;;;;;;;;;;;23.57;45.00;100140.62;1691959;84;20151;-78
2022/06/03 09:26:27;;;;;;;;;;;;;;;23.65;44.64;100136.67;1692346;84;20116;-76
2022/06/03 09:28:56;;;;;;;;;;;;;;;23.76;45.01;100141.52;1692227;85;21705;-74
2022/06/03 09:31:24;;;;;;;;;;;;;;;23.99;46.83;100151.88;1692151;85;20463;-72
2022/06/03 09:34:00;;;;;;;;;;;;;;;24.19;44.96;100151.80;1692769;85;20538;-71
2022/06/03 09:36:29;;;;;;;;;;;;;;;24.43;44.95;100153.72;1692040;85;20156;-74
2022/06/03 09:39:15;;;;;;;;;;;;;;;24.59;41.83;100148.56;1692218;85;20494;-76
2022/06/03 09:41:49;;;;;;;;;;;;;;;24.72;42.22;100149.81;1669977;86;21152;-72
2022/06/03 09:44:18;;;;;;;;;;;;;;;24.99;42.85;100146.07;1672152;85;20819;-76
2022/06/03 09:46:44;;;;;;;;;;;;;;;25.17;45.53;100144.69;1672539;86;20125;-77
2022/06/03 09:49:17;;;;;;;;;;;;;;;25.30;43.04;100138.88;1651792;86;20101;-84
2022/06/03 09:51:56;;;;;;;;;;;;;;;25.35;42.99;100149.72;1672485;86;20089;-76
2022/06/03 09:54:39;;;;;;;;;;;;;;;25.45;43.21;100146.69;1652136;86;20615;-77
2022/06/03 09:57:24;;;;;;;;;;;;;;;25.55;40.61;100150.89;1642771;87;20651;-72
2022/06/03 09:59:57;;;;;;;;;;;;;;;25.69;40.45;100160.56;1672401;86;20097;-71
2022/06/03 10:02:26;;;;;;;;;;;;;;;25.84;37.66;100155.12;1639901;87;20124;-71
2022/06/03 10:05:04;;;;;;;;;;;;;;;25.74;37.69;100162.36;1677665;85;20180;-69
2022/06/03 10:07:30;;;;;;;;;;;;;;;25.72;38.39;100165.38;1677181;85;21274;-70
2022/06/03 10:12:52;;;;;;;;;;;;;;;25.78;38.28;100166.58;1677828;85;20108;-79
2022/06/03 10:15:44;;;;;;;;;;;;;;;25.81;37.15;100168.58;1677507;85;20113;-75
2022/06/03 10:18:23;;;;;;;;;;;;;;;25.72;38.72;100171.80;1625434;87;20152;-72
2022/06/03 10:20:57;;;;;;;;;;;;;;;25.77;42.02;100167.18;1642483;87;20086;-72
2022/06/03 10:23:28;;;;;;;;;;;;;;;25.96;39.50;100171.58;1611564;88;20434;-75
2022/06/03 10:26:01;;;;;;;;;;;;;;;26.20;39.39;100167.06;1617755;88;20110;-74
2022/06/03 10:28:34;;;;;;;;;;;;;;;26.29;38.23;100155.58;1614002;88;20179;-77
2022/06/03 10:31:08;;;;;;;;;;;;;;;26.23;39.03;100160.02;1600107;88;20175;-76
2022/06/03 10:33:42;;;;;;;;;;;;;;;26.17;36.51;100160.84;1647107;87;21279;-77
2022/06/03 10:36:12;;;;;;;;;;;;;;;26.05;36.89;100162.08;1649692;87;20454;-80
2022/06/03 10:38:45;;;;;;;;;;;;;;;26.15;37.23;100154.82;1649513;87;20127;-72
2022/06/03 10:41:11;;;;;;;;;;;;;;;26.25;37.15;100160.42;1651822;84;20201;-74
2022/06/03 10:43:38;;;;;;;;;;;;;;;26.30;37.63;100160.61;1659024;86;20194;-70
2022/06/03 10:46:23;;;;;;;;;;;;;;;26.44;35.98;100156.97;1702732;84;21161;-70
2022/06/03 10:48:54;;;;;;;;;;;;;;;26.46;37.51;100161.58;1660701;86;20125;-70
2022/06/03 11:02:45;;;;;;;;;;;;;;;26.65;32.92;100151.21;1689020;85;20114;-70
2022/06/03 11:05:30;;;;;;;;;;;;;;;26.42;35.04;100150.34;1688958;85;20442;-73
2022/06/03 11:08:09;;;;;;;;;;;;;;;26.59;35.20;100150.03;1689009;85;20836;-77
2022/06/03 11:10:40;;;;;;;;;;;;;;;26.75;36.48;100140.50;1688850;84;20089;-77
2022/06/03 11:13:08;;;;;;;;;;;;;;;26.86;37.41;100140.44;1689219;85;21656;-72
2022/06/03 11:15:43;;;;;;;;;;;;;;;26.98;36.76;100146.23;1679356;84;20509;-73
2022/06/03 11:18:19;;;;;;;;;;;;;;;27.14;34.88;100140.28;1689038;84;20102;-73
2022/06/03 11:20:47;;;;;;;;;;;;;;;27.22;34.70;100146.63;1683381;85;20185;-76
2022/06/03 11:23:14;;;;;;;;;;;;;;;27.12;33.93;100142.70;1661213;86;20110;-81
2022/06/03 11:25:43;;;;;;;;;;;;;;;27.08;34.59;100143.34;1661114;86;21002;-73
2022/06/03 11:28:20;;;;;;;;;;;;;;;27.20;33.71;100140.61;1660579;85;20111;-74
2022/06/03 11:30:59;;;;;;;;;;;;;;;27.24;33.04;100135.75;1658090;85;20444;-71
2022/06/03 11:33:51;;;;;;;;;;;;;;;27.08;33.17;100131.27;1661008;86;20160;-77
2022/06/03 11:36:28;;;;;;;;;;;;;;;27.09;35.02;100130.86;1659732;86;20104;-73
2022/06/03 11:39:01;;;;;;;;;;;;;;;27.27;34.76;100130.08;1660811;85;21280;-73
2022/06/03 11:41:37;;;;;;;;;;;;;;;27.45;33.04;100129.13;1675591;85;20112;-71
2022/06/03 11:44:13;;;;;;;;;;;;;;;27.49;35.03;100123.66;1714243;83;20173;-70
2022/06/03 11:46:53;;;;;;;;;;;;;;;27.42;34.47;100123.72;1711597;83;20516;-73
2022/06/03 11:49:21;;;;;;;;;;;;;;;27.40;35.86;100116.28;1711467;84;20114;-72
2022/06/03 11:51:52;;;;;;;;;;;;;;;27.51;33.93;100114.17;1692626;84;20304;-72
2022/06/03 11:54:24;;;;;;;;;;;;;;;27.56;32.29;100112.92;1711115;84;20535;-72
2022/06/03 11:56:53;;;;;;;;;;;;;;;27.39;31.62;100118.91;1715561;83;20224;-76
2022/06/03 11:59:26;;;;;;;;;;;;;;;27.19;32.45;100109.41;1711198;83;20267;-71
2022/06/03 12:01:59;;;;;;;;;;;;;;;27.22;34.29;100110.00;1711472;83;20174;-71
2022/06/03 12:04:47;;;;;;;;;;;;;;;27.32;31.74;100103.47;1711197;83;20130;-71
2022/06/03 12:07:29;;;;;;;;;;;;;;;27.36;31.15;100100.02;1711419;83;20472;-70
2022/06/03 12:10:03;;;;;;;;;;;;;;;27.33;33.29;100097.22;1711235;84;20445;-69
2022/06/03 12:15:29;;;;;;;;;;;;;;;27.55;34.47;100096.61;1711376;84;20445;-69
2022/06/03 12:17:56;;;;;;;;;;;;;;;27.75;33.40;100098.84;1711678;84;21063;-70
2022/06/03 12:20:48;;;;;;;;;;;;;;;27.99;32.49;100104.83;1711172;84;20126;-67
2022/06/03 12:23:25;;;;;;;;;;;;;;;27.98;31.98;100098.19;1711099;84;20114;-68
2022/06/03 12:25:57;;;;;;;;;;;;;;;27.96;31.26;100094.37;1710470;83;20143;-68
2022/06/03 12:28:32;;;;;;;;;;;;;;;27.93;31.18;100089.58;1710313;83;20469;-67
2022/06/03 12:31:21;;;;;;;;;;;;;;;27.91;30.53;100093.42;1692964;84;20178;-68
2022/06/03 12:34:20;;;;;;;;;;;;;;;27.98;32.14;100093.95;1711551;84;20151;-67
2022/06/03 12:36:51;;;;;;;;;;;;;;;28.23;31.61;100088.23;1708445;83;20146;-68
2022/06/03 12:39:29;;;;;;;;;;;;;;;28.31;31.44;100088.14;1692623;84;20125;-67
2022/06/03 12:42:05;;;;;;;;;;;;;;;28.15;32.66;100087.30;1713814;83;20170;-67
2022/06/03 12:44:48;;;;;;;;;;;;;;;28.35;32.21;100085.44;1689975;83;20125;-68
2022/06/03 12:47:29;;;;;;;;;;;;;;;28.44;31.71;100085.72;1716498;82;20113;-68
2022/06/03 12:49:59;;;;;;;;;;;;;;;28.50;31.46;100083.22;1713101;83;20102;-67
2022/06/03 12:52:39;;;;;;;;;;;;;;;28.68;30.38;100085.19;1721247;83;20089;-67
2022/06/03 12:55:11;;;;;;;;;;;;;;;28.64;30.52;100077.98;1681678;84;20119;-67
2022/06/03 12:57:51;;;;;;;;;;;;;;;28.56;30.90;100079.50;1708296;84;21115;-68
2022/06/03 13:00:26;;;;;;;;;;;;;;;28.60;31.42;100080.86;1707401;84;20217;-68
2022/06/03 13:02:58;;;;;;;;;;;;;;;28.56;30.92;100067.41;1708573;84;20127;-67
2022/06/03 13:05:41;;;;;;;;;;;;;;;28.58;29.68;100079.08;1681764;84;20111;-68
2022/06/03 13:08:17;;;;;;;;;;;;;;;28.59;32.22;100078.66;1709029;84;20119;-68
2022/06/03 13:11:09;;;;;;;;;;;;;;;28.81;30.85;100073.48;1705201;84;20190;-69
2022/06/03 13:13:44;;;;;;;;;;;;;;;28.81;29.99;100072.08;1708724;84;20107;-67
2022/06/03 13:16:27;;;;;;;;;;;;;;;28.81;31.16;100072.69;1678227;84;20485;-68
2022/06/03 13:19:03;;;;;;;;;;;;;;;28.83;32.26;100066.83;1698874;83;20108;-67
2022/06/03 13:22:22;;;;;;;;;;;;;;;28.98;31.35;100073.03;1708352;83;20077;-68
2022/06/03 13:24:39;;;;;;;;;;;;;;;29.04;30.95;100071.31;1707943;84;21160;-68
2022/06/03 13:27:24;;;;;;;;;;;;;;;29.09;29.91;100079.92;1707765;84;20103;-68
2022/06/03 13:29:55;;;;;;;;;;;;;;;29.13;30.42;100075.01;1709022;84;20194;-66
2022/06/03 13:32:37;;;;;;;;;;;;;;;29.15;29.79;100070.52;1709309;84;20160;-68
2022/06/03 13:35:13;;;;;;;;;;;;;;;29.29;30.45;100076.55;1698961;83;20101;-68
2022/06/03 13:37:50;;;;;;;;;;;;;;;29.44;31.10;100080.77;1701392;84;20151;-68
2022/06/03 13:40:28;;;;;;;;;;;;;;;29.51;29.37;100073.53;1707678;84;20144;-68
2022/06/03 13:43:18;;;;;;;;;;;;;;;29.42;29.70;100066.25;1695696;84;20104;-68
2022/06/03 13:46:02;;;;;;;;;;;;;;;29.28;30.64;100060.82;1669176;84;20198;-67
2022/06/03 13:48:39;;;;;;;;;;;;;;;29.43;31.61;100066.44;1673909;85;20136;-67
2022/06/03 13:51:34;;;;;;;;;;;;;;;29.53;30.50;100064.62;1674471;85;20099;-68
2022/06/03 13:54:12;;;;;;;;;;;;;;;29.47;30.39;100068.55;1664630;85;20276;-67
2022/06/03 13:56:40;;;;;;;;;;;;;;;29.50;30.47;100068.31;1671585;84;20119;-68
2022/06/03 13:59:12;;;;;;;;;;;;;;;29.64;30.56;100071.49;1681026;85;20468;-67
2022/06/03 14:01:49;;;;;;;;;;;;;;;29.74;28.24;100063.42;1674884;85;20187;-68
2022/06/03 14:04:20;;;;;;;;;;;;;;;29.52;29.75;100065.84;1693027;84;21147;-66
2022/06/03 14:06:55;;;;;;;;;;;;;;;29.60;27.87;100065.10;1691299;84;20115;-66
2022/06/03 14:09:33;;;;;;;;;;;;;;;29.62;30.21;100065.47;1689422;84;20186;-66
2022/06/03 14:12:16;;;;;;;;;;;;;;;29.66;28.69;100057.72;1692096;84;20523;-66
2022/06/03 14:14:48;;;;;;;;;;;;;;;29.59;28.77;100060.06;1673905;85;20126;-66
2022/06/03 14:17:31;;;;;;;;;;;;;;;29.50;29.41;100053.55;1692384;84;20147;-65
2022/06/03 14:20:15;;;;;;;;;;;;;;;29.61;30.13;100059.62;1692574;85;20310;-65
2022/06/03 14:23:00;;;;;;;;;;;;;;;29.78;26.85;100059.29;1692361;84;20154;-65
2022/06/03 14:25:47;;;;;;;;;;;;;;;29.62;30.49;100055.56;1691665;84;20606;-65
2022/06/03 14:28:23;;;;;;;;;;;;;;;29.67;27.66;100050.83;1692449;84;20159;-66
2022/06/03 14:31:02;;;;;;;;;;;;;;;29.56;27.54;100050.41;1692899;85;21161;-66
2022/06/03 14:33:46;;;;;;;;;;;;;;;29.29;27.71;100044.66;1674359;85;20178;-66